createdAt,value
2023-04-15T00:01:04.612Z,97284.97
2023-04-15T00:03:31.715Z,97287.66
2023-04-15T00:05:58.604Z,97278.75
2023-04-15T00:08:25.683Z,97282.53
2023-04-15T00:10:53.446Z,97288.22
2023-04-15T00:13:20.335Z,97283.34
2023-04-15T00:15:48.090Z,97284.16
2023-04-15T00:18:14.873Z,97283.34
2023-04-15T00:20:41.742Z,97283.06
2023-04-15T00:23:08.669Z,97285.78
2023-04-15T00:25:35.429Z,97287.41
2023-04-15T00:28:02.739Z,97282.00
2023-04-15T00:30:29.516Z,97285.78
2023-04-15T00:32:56.317Z,97283.88
2023-04-15T00:35:24.139Z,97279.56
2023-04-15T00:37:51.586Z,97279.56
2023-04-15T00:40:21.097Z,97281.44
2023-04-15T00:42:48.289Z,97287.41
2023-04-15T00:45:15.717Z,97288.75
2023-04-15T00:47:43.841Z,97287.41
2023-04-15T00:50:12.608Z,97288.47
2023-04-15T00:52:40.909Z,97288.22
2023-04-15T00:55:09.008Z,97289.56
2023-04-15T00:57:36.506Z,97287.66
2023-04-15T01:00:04.927Z,97283.88
2023-04-15T01:02:33.009Z,97288.22
2023-04-15T01:05:00.182Z,97294.69
2023-04-15T01:07:27.177Z,97284.97
2023-04-15T01:09:54.067Z,97284.41
2023-04-15T01:12:21.240Z,97289.28
2023-04-15T01:14:48.020Z,97291.97
2023-04-15T01:17:14.994Z,97300.06
2023-04-15T01:19:41.925Z,97295.75
2023-04-15T01:22:09.245Z,97302.22
2023-04-15T01:24:37.714Z,97304.94
2023-04-15T01:27:07.291Z,97299.53
2023-04-15T01:29:38.371Z,97306.03
2023-04-15T01:32:05.949Z,97301.97
2023-04-15T01:34:35.462Z,97296.84
2023-04-15T01:37:02.574Z,97305.47
2023-04-15T01:39:29.300Z,97310.59
2023-04-15T01:41:56.050Z,97310.06
2023-04-15T01:44:22.796Z,97314.09
2023-04-15T01:46:49.647Z,97314.09
2023-04-15T01:49:17.053Z,97320.06
2023-04-15T01:51:43.880Z,97314.66
2023-04-15T01:54:10.638Z,97318.97
2023-04-15T01:56:37.475Z,97318.97
2023-04-15T01:59:04.279Z,97317.34
2023-04-15T02:01:31.159Z,97323.81
2023-04-15T02:03:58.050Z,97320.88
2023-04-15T02:06:25.470Z,97314.66
2023-04-15T02:08:52.286Z,97311.94
2023-04-15T02:11:19.875Z,97314.38
2023-04-15T02:13:46.881Z,97314.66
2023-04-15T02:16:20.324Z,97304.94
2023-04-15T02:18:47.545Z,97319.25
2023-04-15T02:21:14.977Z,97320.31
2023-04-15T02:23:41.792Z,97317.87
2023-04-15T02:26:08.590Z,97314.59
2023-04-15T02:28:35.924Z,97318.69
2023-04-15T02:31:06.667Z,97314.66
2023-04-15T02:33:33.831Z,97316.81
2023-04-15T02:36:01.150Z,97321.66
2023-04-15T02:38:27.928Z,97311.16
2023-04-15T02:40:54.732Z,97317.63
2023-04-15T02:43:21.772Z,97315.19
2023-04-15T02:45:48.691Z,97316.00
2023-04-15T02:48:18.092Z,97311.41
2023-04-15T02:50:46.699Z,97310.84
2023-04-15T02:53:14.750Z,97316.25
2023-04-15T02:55:42.862Z,97316.25
2023-04-15T02:58:09.904Z,97321.38
2023-04-15T03:00:36.777Z,97313.03
2023-04-15T03:03:05.342Z,97318.97
2023-04-15T03:05:32.714Z,97320.31
2023-04-15T03:08:01.292Z,97310.03
2023-04-15T03:10:28.540Z,97318.69
2023-04-15T03:12:55.723Z,97316.25
2023-04-15T03:15:23.159Z,97323.00
2023-04-15T03:17:50.116Z,97321.66
2023-04-15T03:20:17.146Z,97321.88
2023-04-15T03:22:43.998Z,97322.47
2023-04-15T03:25:10.750Z,97326.22
2023-04-15T03:27:38.920Z,97327.88
2023-04-15T03:30:07.857Z,97327.88
2023-04-15T03:32:34.927Z,97327.28
2023-04-15T03:35:01.718Z,97333.75
2023-04-15T03:37:28.709Z,97335.38
2023-04-15T03:39:55.657Z,97339.16
2023-04-15T03:42:22.483Z,97336.19
2023-04-15T03:44:49.324Z,97323.22
2023-04-15T03:47:16.511Z,97320.53
2023-04-15T03:49:46.302Z,97332.94
2023-04-15T03:52:12.996Z,97331.88
2023-04-15T03:54:39.749Z,97339.41
2023-04-15T03:57:06.646Z,97334.84
2023-04-15T03:59:33.398Z,97325.16
2023-04-15T04:02:00.462Z,97326.22
2023-04-15T04:04:27.353Z,97332.94
2023-04-15T04:06:54.119Z,97338.59
2023-04-15T04:09:20.958Z,97336.72
2023-04-15T04:11:47.675Z,97344.06
2023-04-15T04:14:14.435Z,97333.75
2023-04-15T04:16:41.598Z,97341.03
2023-04-15T04:19:08.660Z,97334.84
2023-04-15T04:21:36.572Z,97349.13
2023-04-15T04:24:03.554Z,97342.94
2023-04-15T04:26:30.517Z,97344.81
2023-04-15T04:28:57.283Z,97351.03
2023-04-15T04:31:24.142Z,97354.53
2023-04-15T04:33:51.314Z,97355.91
2023-04-15T04:36:18.564Z,97356.47
2023-04-15T04:38:45.417Z,97362.13
2023-04-15T04:41:12.176Z,97361.06
2023-04-15T04:43:39.015Z,97364.56
2023-04-15T04:46:05.897Z,97368.34
2023-04-15T04:48:32.913Z,97366.47
2023-04-15T04:50:59.755Z,97364.06
2023-04-15T04:53:26.721Z,97368.91
2023-04-15T04:55:53.683Z,97372.16
2023-04-15T04:58:20.694Z,97374.84
2023-04-15T05:00:47.995Z,97373.50
2023-04-15T05:03:14.941Z,97382.41
2023-04-15T05:05:41.933Z,97380.53
2023-04-15T05:08:08.646Z,97382.41
2023-04-15T05:10:35.426Z,97381.88
2023-04-15T05:13:02.222Z,97382.69
2023-04-15T05:15:29.372Z,97381.88
2023-04-15T05:17:56.199Z,97381.06
2023-04-15T05:20:22.967Z,97390.25
2023-04-15T05:22:49.934Z,97387.56
2023-04-15T05:25:17.001Z,97392.94
2023-04-15T05:27:44.054Z,97394.31
2023-04-15T05:30:13.327Z,97395.13
2023-04-15T05:32:41.711Z,97399.44
2023-04-15T05:35:08.722Z,97408.09
2023-04-15T05:37:35.607Z,97408.09
2023-04-15T05:40:02.396Z,97408.38
2023-04-15T05:42:29.154Z,97414.84
2023-04-15T05:44:56.277Z,97416.22
2023-04-15T05:47:23.166Z,97414.59
2023-04-15T05:49:49.978Z,97417.28
2023-04-15T05:52:16.739Z,97418.09
2023-04-15T05:54:43.485Z,97421.62
2023-04-15T05:57:10.192Z,97420.53
2023-04-15T05:59:37.039Z,97422.97
2023-04-15T06:02:03.961Z,97428.69
2023-04-15T06:04:31.178Z,97429.50
2023-04-15T06:06:57.989Z,97420.31
2023-04-15T06:09:24.897Z,97431.69
2023-04-15T06:11:52.373Z,97429.78
2023-04-15T06:14:19.087Z,97433.84
2023-04-15T06:16:45.817Z,97436.28
2023-04-15T06:19:12.531Z,97436.28
2023-04-15T06:21:39.321Z,97430.63
2023-04-15T06:24:06.418Z,97439.00
2023-04-15T06:26:33.213Z,97438.75
2023-04-15T06:29:00.468Z,97443.88
2023-04-15T06:31:27.657Z,97441.72
2023-04-15T06:33:54.508Z,97452.28
2023-04-15T06:36:21.766Z,97448.25
2023-04-15T06:38:48.579Z,97449.63
2023-04-15T06:41:15.824Z,97453.41
2023-04-15T06:43:42.570Z,97456.41
2023-04-15T06:46:09.449Z,97451.53
2023-04-15T06:48:36.369Z,97454.78
2023-04-15T06:51:04.152Z,97458.03
2023-04-15T06:53:31.046Z,97464.81
2023-04-15T06:55:57.805Z,97459.94
2023-04-15T06:58:24.555Z,97468.63
2023-04-15T07:00:52.116Z,97470.00
2023-04-15T07:03:19.091Z,97470.56
2023-04-15T07:05:46.127Z,97476.25
2023-04-15T07:08:12.893Z,97476.78
2023-04-15T07:10:39.800Z,97475.44
2023-04-15T07:13:08.874Z,97470.59
2023-04-15T07:15:35.863Z,97490.06
2023-04-15T07:18:02.756Z,97486.00
2023-04-15T07:20:29.557Z,97486.56
2023-04-15T07:22:56.453Z,97486.88
2023-04-15T07:25:23.241Z,97487.41
2023-04-15T07:27:50.104Z,97500.66
2023-04-15T07:30:17.012Z,97493.66
2023-04-15T07:32:43.877Z,97499.59
2023-04-15T07:35:11.672Z,97496.34
2023-04-15T07:37:38.452Z,97501.22
2023-04-15T07:40:07.227Z,97509.63
2023-04-15T07:42:34.597Z,97504.53
2023-04-15T07:45:01.626Z,97507.50
2023-04-15T07:47:28.672Z,97509.66
2023-04-15T07:49:55.522Z,97518.06
2023-04-15T07:52:22.429Z,97516.44
2023-04-15T07:54:49.334Z,97518.63
2023-04-15T07:57:17.149Z,97525.38
2023-04-15T07:59:43.967Z,97522.97
2023-04-15T08:02:11.994Z,97521.38
2023-04-15T08:04:39.496Z,97524.87
2023-04-15T08:07:07.214Z,97525.16
2023-04-15T08:09:34.094Z,97541.13
2023-04-15T08:12:01.099Z,97533.53
2023-04-15T08:14:27.915Z,97542.22
2023-04-15T08:16:54.669Z,97533.56
2023-04-15T08:19:21.563Z,97543.84
2023-04-15T08:21:48.390Z,97537.34
2023-04-15T08:24:15.692Z,97543.88
2023-04-15T08:26:42.806Z,97539.00
2023-04-15T08:29:09.626Z,97548.47
2023-04-15T08:31:36.517Z,97544.41
2023-04-15T08:34:03.734Z,97541.16
2023-04-15T08:36:32.291Z,97548.75
2023-04-15T08:39:01.449Z,97546.31
2023-04-15T08:41:35.874Z,97556.59
2023-04-15T08:44:05.812Z,97554.19
2023-04-15T08:46:34.941Z,97549.03
2023-04-15T08:49:05.303Z,97557.16
2023-04-15T08:51:32.816Z,97564.47
2023-04-15T08:54:00.595Z,97559.59
2023-04-15T08:56:30.536Z,97559.06
2023-04-15T08:58:57.919Z,97559.34
2023-04-15T09:01:25.616Z,97563.41
2023-04-15T09:03:54.872Z,97562.34
2023-04-15T09:06:23.102Z,97569.09
2023-04-15T09:08:50.715Z,97573.16
2023-04-15T09:11:20.644Z,97569.91
2023-04-15T09:13:47.432Z,97571.53
2023-04-15T09:16:14.480Z,97577.22
2023-04-15T09:18:41.560Z,97580.47
2023-04-15T09:21:16.863Z,97580.19
2023-04-15T09:23:59.291Z,97578.03
2023-04-15T09:26:38.077Z,97586.72
2023-04-15T09:29:09.404Z,97576.41
2023-04-15T09:31:39.817Z,97583.19
2023-04-15T09:34:07.414Z,97582.09
2023-04-15T09:36:55.003Z,97586.97
2023-04-15T09:39:22.162Z,97587.50
2023-04-15T09:42:06.877Z,97587.78
2023-04-15T09:44:33.932Z,97585.59
2023-04-15T09:47:01.468Z,97584.25
2023-04-15T09:49:28.653Z,97582.59
2023-04-15T09:52:05.581Z,97589.16
2023-04-15T09:54:37.382Z,97589.44
2023-04-15T09:57:10.516Z,97592.13
2023-04-15T09:59:37.421Z,97589.41
2023-04-15T10:02:07.815Z,97599.41
2023-04-15T10:04:37.535Z,97598.91
2023-04-15T10:07:06.490Z,97595.34
2023-04-15T10:09:35.794Z,97602.13
2023-04-15T10:12:05.501Z,97604.28
2023-04-15T10:14:35.026Z,97598.03
2023-04-15T10:17:03.473Z,97594.78
2023-04-15T10:19:33.463Z,97598.81
2023-04-15T10:22:00.353Z,97603.16
2023-04-15T10:24:27.912Z,97602.91
2023-04-15T10:26:55.444Z,97600.75
2023-04-15T10:29:25.725Z,97610.50
2023-04-15T10:31:54.780Z,97600.19
2023-04-15T10:34:22.974Z,97606.13
2023-04-15T10:36:50.356Z,97601.78
2023-04-15T10:39:38.973Z,97605.03
2023-04-15T10:42:19.423Z,97610.72
2023-04-15T10:44:51.634Z,97603.09
2023-04-15T10:47:20.577Z,97603.34
2023-04-15T10:49:48.671Z,97606.63
2023-04-15T10:52:18.140Z,97608.25
2023-04-15T10:54:45.447Z,97606.06
2023-04-15T10:57:17.554Z,97610.41
2023-04-15T11:00:04.831Z,97607.16
2023-04-15T11:02:52.205Z,97615.81
2023-04-15T11:05:20.811Z,97619.62
2023-04-15T11:07:48.896Z,97619.88
2023-04-15T11:10:18.666Z,97618.78
2023-04-15T11:12:46.092Z,97621.22
2023-04-15T11:15:34.045Z,97623.94
2023-04-15T11:18:13.664Z,97622.84
2023-04-15T11:20:45.357Z,97627.19
2023-04-15T11:23:14.153Z,97625.81
2023-04-15T11:25:41.858Z,97628.25
2023-04-15T11:28:08.706Z,97629.63
2023-04-15T11:30:37.708Z,97626.62
2023-04-15T11:33:06.817Z,97635.31
2023-04-15T11:35:33.729Z,97639.06
2023-04-15T11:38:27.996Z,97638.81
2023-04-15T11:40:54.855Z,97638.25
2023-04-15T11:43:23.152Z,97641.50
2023-04-15T11:46:01.967Z,97641.22
2023-04-15T11:48:30.752Z,97640.94
2023-04-15T11:51:05.382Z,97639.56
2023-04-15T11:53:42.719Z,97642.81
2023-04-15T11:56:11.696Z,97645.25
2023-04-15T11:58:39.348Z,97639.84
2023-04-15T12:01:07.372Z,97643.06
2023-04-15T12:03:38.644Z,97643.31
2023-04-15T12:06:24.915Z,97643.84
2023-04-15T12:09:13.028Z,97633.53
2023-04-15T12:11:48.507Z,97640.81
2023-04-15T12:14:29.432Z,97639.97
2023-04-15T12:17:06.743Z,97645.41
2023-04-15T12:19:42.041Z,97632.59
2023-04-15T12:22:14.109Z,97644.25
2023-04-15T12:24:47.946Z,97645.81
2023-04-15T12:27:17.797Z,97645.81
2023-04-15T12:29:44.666Z,97645.81
2023-04-15T12:32:13.239Z,97650.91
2023-04-15T12:34:42.215Z,97650.34
2023-04-15T12:37:10.690Z,97654.13
2023-04-15T12:39:39.781Z,97655.19
2023-04-15T12:42:07.566Z,97654.34
2023-04-15T12:44:37.320Z,97655.41
2023-04-15T12:47:04.750Z,97648.28
2023-04-15T12:49:32.997Z,97643.91
2023-04-15T12:52:01.084Z,97649.28
2023-04-15T12:54:29.594Z,97649.28
2023-04-15T12:56:57.322Z,97647.59
2023-04-15T12:59:24.488Z,97646.44
2023-04-15T13:01:53.514Z,97648.88
2023-04-15T13:04:21.387Z,97648.84
2023-04-15T13:06:48.518Z,97651.78
2023-04-15T13:09:15.849Z,97648.22
2023-04-15T13:11:42.751Z,97653.34
2023-04-15T13:14:11.754Z,97655.19
2023-04-15T13:16:39.219Z,97661.66
2023-04-15T13:19:06.508Z,97666.25
2023-04-15T13:21:35.964Z,97661.06
2023-04-15T13:24:04.271Z,97667.03
2023-04-15T13:26:32.073Z,97673.81
2023-04-15T13:28:59.527Z,97677.56
2023-04-15T13:31:26.469Z,97676.19
2023-04-15T13:33:53.380Z,97666.63
2023-04-15T13:36:20.178Z,97673.91
2023-04-15T13:38:48.656Z,97667.13
2023-04-15T13:41:17.395Z,97672.78
2023-04-15T13:43:44.234Z,97676.03
2023-04-15T13:46:11.199Z,97671.63
2023-04-15T13:48:38.238Z,97674.88
2023-04-15T13:51:05.268Z,97678.09
2023-04-15T13:53:38.383Z,97680.28
2023-04-15T13:56:09.698Z,97687.06
2023-04-15T13:58:37.716Z,97690.00
2023-04-15T14:01:06.067Z,97688.66
2023-04-15T14:03:34.937Z,97687.25
2023-04-15T14:06:03.352Z,97698.38
2023-04-15T14:08:30.204Z,97696.97
2023-04-15T14:10:57.753Z,97704.56
2023-04-15T14:13:24.730Z,97705.59
2023-04-15T14:15:51.705Z,97714.81
2023-04-15T14:18:18.509Z,97714.53
2023-04-15T14:20:45.268Z,97713.44
2023-04-15T14:23:12.167Z,97722.94
2023-04-15T14:25:39.844Z,97724.28
2023-04-15T14:28:07.245Z,97727.00
2023-04-15T14:30:34.028Z,97727.81
2023-04-15T14:33:39.811Z,97731.66
2023-04-15T14:36:34.144Z,97737.37
2023-04-15T14:39:11.313Z,97743.94
2023-04-15T14:41:38.283Z,97745.31
2023-04-15T14:44:05.484Z,97742.88
2023-04-15T14:46:33.862Z,97751.34
2023-04-15T14:49:00.732Z,97753.84
2023-04-15T14:51:27.786Z,97767.47
2023-04-15T14:53:54.586Z,97775.69
2023-04-15T14:56:21.597Z,97792.69
2023-04-15T14:58:49.412Z,97796.03
2023-04-15T15:01:16.709Z,97800.53
2023-04-15T15:03:43.913Z,97806.19
2023-04-15T15:06:11.114Z,97804.63
2023-04-15T15:08:38.077Z,97789.47
2023-04-15T15:11:04.898Z,97781.63
2023-04-15T15:13:31.761Z,97778.66
2023-04-15T15:15:58.651Z,97780.63
2023-04-15T15:18:26.076Z,97787.44
2023-04-15T15:20:52.844Z,97787.19
2023-04-15T15:23:19.820Z,97781.75
2023-04-15T15:25:47.408Z,97785.84
2023-04-15T15:28:14.215Z,97799.16
2023-04-15T15:30:41.121Z,97798.34
2023-04-15T15:33:07.979Z,97800.25
2023-04-15T15:35:34.730Z,97803.22
2023-04-15T15:38:01.734Z,97805.66
2023-04-15T15:40:28.792Z,97810.84
2023-04-15T15:43:14.261Z,97825.00
2023-04-15T15:45:41.448Z,97826.34
2023-04-15T15:48:08.498Z,97824.72
2023-04-15T15:50:35.704Z,97821.75
2023-04-15T15:53:02.543Z,97828.25
2023-04-15T15:55:29.352Z,97835.06
2023-04-15T15:57:56.093Z,97841.88
2023-04-15T16:00:23.280Z,97834.81
2023-04-15T16:03:06.186Z,97840.28
2023-04-15T16:05:35.148Z,97851.72
2023-04-15T16:08:02.360Z,97851.47
2023-04-15T16:10:29.138Z,97856.94
2023-04-15T16:12:56.084Z,97861.81
2023-04-15T16:15:25.500Z,97864.53
2023-04-15T16:17:52.676Z,97865.94
2023-04-15T16:20:19.510Z,97867.31
2023-04-15T16:22:46.560Z,97882.25
2023-04-15T16:25:13.342Z,97882.00
2023-04-15T16:27:57.133Z,97876.84
2023-04-15T16:30:28.965Z,97876.31
2023-04-15T16:32:56.944Z,97876.84
2023-04-15T16:35:24.077Z,97882.81
2023-04-15T16:37:51.186Z,97875.75
2023-04-15T16:40:18.432Z,97879.03
2023-04-15T16:42:45.618Z,97879.31
2023-04-15T16:45:12.596Z,97890.19
2023-04-15T16:47:39.575Z,97890.19
2023-04-15T16:50:07.653Z,97901.31
2023-04-15T16:52:35.035Z,97896.72
2023-04-15T16:55:02.410Z,97893.47
2023-04-15T16:58:00.645Z,97904.34
2023-04-15T17:00:16.566Z,97901.62
2023-04-15T17:02:43.738Z,97912.72
2023-04-15T17:05:11.360Z,97912.75
2023-04-15T17:07:38.528Z,97912.22
2023-04-15T17:10:06.461Z,97912.47
2023-04-15T17:12:33.515Z,97912.50
2023-04-15T17:15:00.313Z,97913.31
2023-04-15T17:17:27.135Z,97920.66
2023-04-15T17:19:53.966Z,97920.91
2023-04-15T17:22:21.241Z,97926.63
2023-04-15T17:24:48.865Z,97922.56
2023-04-15T17:27:16.259Z,97938.84
2023-04-15T17:29:43.532Z,97937.22
2023-04-15T17:32:11.277Z,97947.78
2023-04-15T17:34:50.758Z,97953.22
2023-04-15T17:37:18.817Z,97950.78
2023-04-15T17:39:46.157Z,97954.31
2023-04-15T17:42:13.753Z,97957.31
2023-04-15T17:44:41.226Z,97964.06
2023-04-15T17:47:08.672Z,97965.97
2023-04-15T17:49:38.225Z,97975.75
2023-04-15T17:52:05.459Z,97976.81
2023-04-15T17:54:32.365Z,97984.16
2023-04-15T17:57:01.777Z,97985.22
2023-04-15T17:59:29.808Z,97990.66
2023-04-15T18:01:59.898Z,97993.91
2023-04-15T18:04:28.034Z,98003.16
2023-04-15T18:06:55.661Z,98008.56
2023-04-15T18:09:23.032Z,98003.69
2023-04-15T18:11:50.496Z,98019.16
2023-04-15T18:16:58.483Z,98027.03
2023-04-15T18:19:25.846Z,98029.19
2023-04-15T18:21:53.218Z,98026.47
2023-04-15T18:24:20.531Z,98026.16
2023-04-15T18:26:49.200Z,98035.66
2023-04-15T18:29:18.007Z,98038.91
2023-04-15T18:31:45.539Z,98041.87
2023-04-15T18:34:13.499Z,98046.78
2023-04-15T18:36:41.144Z,98053.00
2023-04-15T18:39:08.882Z,98045.94
2023-04-15T18:41:36.786Z,98059.22
2023-04-15T18:44:04.491Z,98065.47
2023-04-15T18:46:32.026Z,98073.56
2023-04-15T18:48:59.414Z,98076.28
2023-04-15T18:51:27.926Z,98083.59
2023-04-15T18:53:55.832Z,98086.56
2023-04-15T18:56:24.730Z,98091.72
2023-04-15T18:59:26.963Z,98099.06
2023-04-15T19:01:39.971Z,98094.16
2023-04-15T19:04:07.282Z,98096.06
2023-04-15T19:06:34.189Z,98096.06
2023-04-15T19:09:01.900Z,98096.31
2023-04-15T19:11:29.727Z,98103.63
2023-04-15T19:13:57.074Z,98110.41
2023-04-15T19:16:24.320Z,98117.19
2023-04-15T19:18:55.168Z,98115.53
2023-04-15T19:21:23.404Z,98125.84
2023-04-15T19:23:50.789Z,98128.25
2023-04-15T19:26:19.233Z,98129.84
2023-04-15T19:28:46.701Z,98133.06
2023-04-15T19:31:14.337Z,98133.91
2023-04-15T19:33:42.777Z,98137.41
2023-04-15T19:36:12.660Z,98131.97
2023-04-15T19:38:40.603Z,98134.66
2023-04-15T19:41:11.026Z,98138.44
2023-04-15T19:43:38.749Z,98135.16
2023-04-15T19:46:08.396Z,98140.03
2023-04-15T19:48:37.339Z,98139.22
2023-04-15T19:51:05.014Z,98142.44
2023-04-15T19:53:32.368Z,98145.41
2023-04-15T19:56:00.124Z,98140.78
2023-04-15T19:58:28.325Z,98143.25
2023-04-15T20:00:55.635Z,98137.81
2023-04-15T20:03:23.315Z,98143.50
2023-04-15T20:05:51.083Z,98144.00
2023-04-15T20:08:19.529Z,98140.16
2023-04-15T20:10:47.062Z,98146.12
2023-04-15T20:13:14.499Z,98147.72
2023-04-15T20:15:41.680Z,98145.53
2023-04-15T20:18:09.150Z,98145.53
2023-04-15T20:20:39.953Z,98153.41
2023-04-15T20:23:10.862Z,98147.94
2023-04-15T20:25:38.621Z,98148.44
2023-04-15T20:28:05.733Z,98153.28
2023-04-15T20:30:33.325Z,98142.44
2023-04-15T20:33:01.302Z,98148.69
2023-04-15T20:35:28.459Z,98151.91
2023-04-15T20:37:55.559Z,98149.47
2023-04-15T20:40:23.650Z,98148.09
2023-04-15T20:42:51.379Z,98153.19
2023-04-15T20:45:18.962Z,98157.53
2023-04-15T20:47:46.276Z,98155.09
2023-04-15T20:50:13.337Z,98166.19
2023-04-15T20:52:40.406Z,98164.56
2023-04-15T20:55:08.055Z,98162.63
2023-04-15T20:57:35.233Z,98159.91
2023-04-15T21:00:02.484Z,98163.41
2023-04-15T21:02:29.810Z,98171.75
2023-04-15T21:05:01.292Z,98173.84
2023-04-15T21:07:28.283Z,98177.63
2023-04-15T21:09:56.098Z,98186.25
2023-04-15T21:12:22.967Z,98191.94
2023-04-15T21:14:50.063Z,98184.59
2023-04-15T21:17:16.948Z,98190.50
2023-04-15T21:19:43.881Z,98191.00
2023-04-15T21:22:10.643Z,98194.47
2023-04-15T21:24:37.396Z,98195.22
2023-04-15T21:27:04.271Z,98198.69
2023-04-15T21:29:31.178Z,98208.66
2023-04-15T21:31:58.040Z,98202.91
2023-04-15T21:34:24.981Z,98211.78
2023-04-15T21:36:52.077Z,98212.59
2023-04-15T21:39:18.831Z,98220.16
2023-04-15T21:41:45.756Z,98216.87
2023-04-15T21:44:14.564Z,98229.03
2023-04-15T21:46:42.078Z,98223.28
2023-04-15T21:49:13.120Z,98229.72
2023-04-15T21:51:39.837Z,98221.12
2023-04-15T21:54:06.710Z,98227.03
2023-04-15T21:56:33.518Z,98234.00
2023-04-15T21:59:00.432Z,98226.47
2023-04-15T22:01:27.459Z,98237.28
2023-04-15T22:03:54.375Z,98234.00
2023-04-15T22:06:21.762Z,98239.94
2023-04-15T22:08:56.763Z,98246.88
2023-04-15T22:11:27.700Z,98232.22
2023-04-15T22:13:55.607Z,98232.13
2023-04-15T22:16:22.413Z,98235.91
2023-04-15T22:18:49.376Z,98244.03
2023-04-15T22:21:16.408Z,98252.94
2023-04-15T22:23:47.430Z,98256.72
2023-04-15T22:26:14.527Z,98270.50
2023-04-15T22:28:41.815Z,98265.81
2023-04-15T22:31:08.815Z,98264.19
2023-04-15T22:33:35.891Z,98267.97
2023-04-15T22:36:02.637Z,98270.09
2023-04-15T22:38:29.383Z,98273.25
2023-04-15T22:40:56.308Z,98277.03
2023-04-15T22:43:23.056Z,98275.38
2023-04-15T22:45:50.678Z,98275.62
2023-04-15T22:48:18.390Z,98279.41
2023-04-15T22:50:45.243Z,98276.69
2023-04-15T22:53:12.356Z,98275.88
2023-04-15T22:55:39.179Z,98270.72
2023-04-15T22:58:06.119Z,98271.53
2023-04-15T23:00:32.888Z,98279.31
2023-04-15T23:02:59.903Z,98278.75
2023-04-15T23:05:27.725Z,98279.25
2023-04-15T23:07:54.791Z,98285.47
2023-04-15T23:10:21.776Z,98290.31
2023-04-15T23:12:48.817Z,98293.22
2023-04-15T23:15:15.852Z,98299.22
2023-04-15T23:17:43.377Z,98293.47
2023-04-15T23:20:11.418Z,98291.00
2023-04-15T23:22:38.652Z,98291.72
2023-04-15T23:25:05.910Z,98293.25
2023-04-15T23:27:32.733Z,98291.97
2023-04-15T23:29:59.519Z,98293.59
2023-04-15T23:32:27.449Z,98289.25
2023-04-15T23:34:54.347Z,98297.03
2023-04-15T23:37:21.164Z,98299.16
2023-04-15T23:39:47.877Z,98305.38
2023-04-15T23:42:14.910Z,98303.41
2023-04-15T23:44:41.915Z,98308.50
2023-04-15T23:47:08.818Z,98308.50
2023-04-15T23:49:36.738Z,98315.78
2023-04-15T23:52:03.853Z,98312.25
2023-04-15T23:54:30.754Z,98320.12
2023-04-15T23:56:57.514Z,98318.22
2023-04-15T23:59:24.330Z,98315.78
